sensor_id;sensor_type;location;lat;lon;timestamp;P1;durP1;ratioP1;P2;durP2;ratioP2
5867;SDS011;2960;49.142;7.768;2023-02-13T00:00:35;8.20;;;2.60;;
5867;SDS011;2960;49.142;7.768;2023-02-13T00:03:03;10.50;;;3.10;;
5867;SDS011;2960;49.142;7.768;2023-02-13T00:05:33;10.17;;;3.20;;
5867;SDS011;2960;49.142;7.768;2023-02-13T00:08:00;10.20;;;3.30;;
5867;SDS011;2960;49.142;7.768;2023-02-13T00:10:28;10.47;;;3.43;;
5867;SDS011;2960;49.142;7.768;2023-02-13T00:12:55;10.03;;;3.20;;
5867;SDS011;2960;49.142;7.768;2023-02-13T00:15:22;9.83;;;3.60;;
5867;SDS011;2960;49.142;7.768;2023-02-13T00:17:50;10.00;;;3.77;;
5867;SDS011;2960;49.142;7.768;2023-02-13T00:20:17;11.03;;;2.97;;
5867;SDS011;2960;49.142;7.768;2023-02-13T00:22:45;9.43;;;3.40;;
5867;SDS011;2960;49.142;7.768;2023-02-13T00:25:12;9.23;;;3.27;;
5867;SDS011;2960;49.142;7.768;2023-02-13T00:27:39;9.40;;;3.00;;
5867;SDS011;2960;49.142;7.768;2023-02-13T00:30:06;10.07;;;3.37;;
5867;SDS011;2960;49.142;7.768;2023-02-13T00:32:34;9.70;;;3.77;;
5867;SDS011;2960;49.142;7.768;2023-02-13T00:35:03;10.63;;;3.47;;
5867;SDS011;2960;49.142;7.768;2023-02-13T00:37:31;10.10;;;3.70;;
5867;SDS011;2960;49.142;7.768;2023-02-13T00:39:59;9.23;;;2.90;;
5867;SDS011;2960;49.142;7.768;2023-02-13T00:42:30;10.90;;;3.73;;
5867;SDS011;2960;49.142;7.768;2023-02-13T00:44:59;11.20;;;3.60;;
5867;SDS011;2960;49.142;7.768;2023-02-13T00:47:26;9.70;;;3.63;;
5867;SDS011;2960;49.142;7.768;2023-02-13T00:49:53;10.20;;;3.40;;
5867;SDS011;2960;49.142;7.768;2023-02-13T00:52:22;9.90;;;3.77;;
5867;SDS011;2960;49.142;7.768;2023-02-13T00:54:49;11.17;;;3.57;;
5867;SDS011;2960;49.142;7.768;2023-02-13T00:57:16;11.90;;;4.00;;
5867;SDS011;2960;49.142;7.768;2023-02-13T00:59:43;11.10;;;3.83;;
5867;SDS011;2960;49.142;7.768;2023-02-13T01:02:10;9.77;;;3.27;;
5867;SDS011;2960;49.142;7.768;2023-02-13T01:04:37;9.87;;;3.47;;
5867;SDS011;2960;49.142;7.768;2023-02-13T01:07:09;10.30;;;3.43;;
5867;SDS011;2960;49.142;7.768;2023-02-13T01:09:37;9.17;;;3.20;;
5867;SDS011;2960;49.142;7.768;2023-02-13T01:12:04;11.00;;;3.40;;
5867;SDS011;2960;49.142;7.768;2023-02-13T01:14:32;13.13;;;3.60;;
5867;SDS011;2960;49.142;7.768;2023-02-13T01:16:59;11.03;;;3.50;;
5867;SDS011;2960;49.142;7.768;2023-02-13T01:19:26;10.20;;;3.33;;
5867;SDS011;2960;49.142;7.768;2023-02-13T01:21:55;11.40;;;4.00;;
5867;SDS011;2960;49.142;7.768;2023-02-13T01:24:22;9.60;;;3.43;;
5867;SDS011;2960;49.142;7.768;2023-02-13T01:26:51;12.10;;;3.50;;
5867;SDS011;2960;49.142;7.768;2023-02-13T01:29:18;11.33;;;3.70;;
5867;SDS011;2960;49.142;7.768;2023-02-13T01:31:45;10.47;;;3.70;;
5867;SDS011;2960;49.142;7.768;2023-02-13T01:34:12;11.03;;;3.83;;
5867;SDS011;2960;49.142;7.768;2023-02-13T01:36:39;10.60;;;3.47;;
5867;SDS011;2960;49.142;7.768;2023-02-13T01:39:06;10.23;;;3.77;;
5867;SDS011;2960;49.142;7.768;2023-02-13T01:41:37;9.70;;;3.70;;
5867;SDS011;2960;49.142;7.768;2023-02-13T01:47:19;11.70;;;3.90;;
5867;SDS011;2960;49.142;7.768;2023-02-13T01:49:53;9.67;;;3.57;;
5867;SDS011;2960;49.142;7.768;2023-02-13T01:52:29;10.97;;;4.07;;
5867;SDS011;2960;49.142;7.768;2023-02-13T01:54:57;9.50;;;3.30;;
5867;SDS011;2960;49.142;7.768;2023-02-13T01:57:24;10.17;;;3.57;;
5867;SDS011;2960;49.142;7.768;2023-02-13T01:59:56;11.50;;;3.70;;
5867;SDS011;2960;49.142;7.768;2023-02-13T02:02:28;9.63;;;3.20;;
5867;SDS011;2960;49.142;7.768;2023-02-13T02:05:00;11.23;;;3.67;;
5867;SDS011;2960;49.142;7.768;2023-02-13T02:07:28;11.13;;;3.50;;
5867;SDS011;2960;49.142;7.768;2023-02-13T02:09:57;10.67;;;3.43;;
5867;SDS011;2960;49.142;7.768;2023-02-13T02:12:30;11.00;;;3.87;;
5867;SDS011;2960;49.142;7.768;2023-02-13T02:15:05;10.13;;;3.13;;
5867;SDS011;2960;49.142;7.768;2023-02-13T02:17:34;9.03;;;2.93;;
5867;SDS011;2960;49.142;7.768;2023-02-13T02:20:04;10.03;;;3.27;;
5867;SDS011;2960;49.142;7.768;2023-02-13T02:32:31;11.13;;;3.57;;
5867;SDS011;2960;49.142;7.768;2023-02-13T02:35:22;10.03;;;3.20;;
5867;SDS011;2960;49.142;7.768;2023-02-13T02:38:02;9.60;;;3.23;;
5867;SDS011;2960;49.142;7.768;2023-02-13T02:40:51;9.20;;;3.00;;
5867;SDS011;2960;49.142;7.768;2023-02-13T02:43:33;10.63;;;3.70;;
5867;SDS011;2960;49.142;7.768;2023-02-13T02:46:17;9.20;;;3.30;;
5867;SDS011;2960;49.142;7.768;2023-02-13T02:48:53;8.80;;;2.77;;
5867;SDS011;2960;49.142;7.768;2023-02-13T02:51:47;12.40;;;3.37;;
5867;SDS011;2960;49.142;7.768;2023-02-13T02:54:22;12.47;;;4.10;;
5867;SDS011;2960;49.142;7.768;2023-02-13T02:57:13;10.23;;;3.30;;
5867;SDS011;2960;49.142;7.768;2023-02-13T02:59:44;10.90;;;3.70;;
5867;SDS011;2960;49.142;7.768;2023-02-13T03:02:31;11.67;;;3.53;;
5867;SDS011;2960;49.142;7.768;2023-02-13T03:05:20;9.30;;;2.97;;
5867;SDS011;2960;49.142;7.768;2023-02-13T03:08:08;10.40;;;3.73;;
5867;SDS011;2960;49.142;7.768;2023-02-13T03:10:36;10.87;;;3.57;;
5867;SDS011;2960;49.142;7.768;2023-02-13T03:13:29;11.63;;;3.60;;
5867;SDS011;2960;49.142;7.768;2023-02-13T03:16:04;11.03;;;3.80;;
5867;SDS011;2960;49.142;7.768;2023-02-13T03:18:55;10.20;;;3.37;;
5867;SDS011;2960;49.142;7.768;2023-02-13T03:21:44;10.70;;;3.83;;
5867;SDS011;2960;49.142;7.768;2023-02-13T03:24:44;12.83;;;3.30;;
5867;SDS011;2960;49.142;7.768;2023-02-13T03:27:21;10.87;;;3.60;;
5867;SDS011;2960;49.142;7.768;2023-02-13T03:30:18;11.30;;;3.80;;
5867;SDS011;2960;49.142;7.768;2023-02-13T03:33:01;10.97;;;3.77;;
5867;SDS011;2960;49.142;7.768;2023-02-13T03:35:44;11.37;;;3.67;;
5867;SDS011;2960;49.142;7.768;2023-02-13T03:38:38;10.00;;;3.53;;
5867;SDS011;2960;49.142;7.768;2023-02-13T03:41:12;14.13;;;3.77;;
5867;SDS011;2960;49.142;7.768;2023-02-13T03:44:02;9.97;;;3.37;;
5867;SDS011;2960;49.142;7.768;2023-02-13T03:46:39;10.50;;;3.57;;
5867;SDS011;2960;49.142;7.768;2023-02-13T03:49:10;12.10;;;3.90;;
5867;SDS011;2960;49.142;7.768;2023-02-13T03:52:03;10.23;;;3.50;;
5867;SDS011;2960;49.142;7.768;2023-02-13T03:54:37;10.57;;;3.83;;
5867;SDS011;2960;49.142;7.768;2023-02-13T03:57:28;11.87;;;3.77;;
5867;SDS011;2960;49.142;7.768;2023-02-13T04:00:15;10.73;;;3.70;;
5867;SDS011;2960;49.142;7.768;2023-02-13T04:02:48;10.87;;;3.47;;
5867;SDS011;2960;49.142;7.768;2023-02-13T04:05:23;13.93;;;4.27;;
5867;SDS011;2960;49.142;7.768;2023-02-13T04:07:56;10.60;;;3.33;;
5867;SDS011;2960;49.142;7.768;2023-02-13T04:10:25;10.33;;;3.47;;
5867;SDS011;2960;49.142;7.768;2023-02-13T04:12:59;11.20;;;3.30;;
5867;SDS011;2960;49.142;7.768;2023-02-13T04:15:35;10.57;;;3.27;;
5867;SDS011;2960;49.142;7.768;2023-02-13T04:18:08;10.33;;;3.20;;
5867;SDS011;2960;49.142;7.768;2023-02-13T04:20:39;10.40;;;3.37;;
5867;SDS011;2960;49.142;7.768;2023-02-13T04:23:07;10.73;;;3.40;;
5867;SDS011;2960;49.142;7.768;2023-02-13T04:25:38;10.80;;;3.87;;
5867;SDS011;2960;49.142;7.768;2023-02-13T04:28:08;11.10;;;3.70;;
5867;SDS011;2960;49.142;7.768;2023-02-13T04:30:35;11.17;;;4.27;;
5867;SDS011;2960;49.142;7.768;2023-02-13T04:33:02;12.57;;;4.20;;
5867;SDS011;2960;49.142;7.768;2023-02-13T04:35:30;11.30;;;3.90;;
5867;SDS011;2960;49.142;7.768;2023-02-13T04:37:57;11.37;;;4.20;;
5867;SDS011;2960;49.142;7.768;2023-02-13T04:40:27;10.93;;;3.60;;
5867;SDS011;2960;49.142;7.768;2023-02-13T04:42:56;12.40;;;4.30;;
5867;SDS011;2960;49.142;7.768;2023-02-13T04:45:23;11.23;;;3.60;;
5867;SDS011;2960;49.142;7.768;2023-02-13T04:47:50;10.00;;;3.73;;
5867;SDS011;2960;49.142;7.768;2023-02-13T04:50:18;10.60;;;3.70;;
5867;SDS011;2960;49.142;7.768;2023-02-13T04:52:46;12.40;;;3.83;;
5867;SDS011;2960;49.142;7.768;2023-02-13T04:55:13;13.27;;;4.20;;
5867;SDS011;2960;49.142;7.768;2023-02-13T04:57:42;10.87;;;3.20;;
5867;SDS011;2960;49.142;7.768;2023-02-13T05:00:11;11.37;;;3.57;;
5867;SDS011;2960;49.142;7.768;2023-02-13T05:02:39;15.43;;;4.13;;
5867;SDS011;2960;49.142;7.768;2023-02-13T05:05:06;11.93;;;4.20;;
5867;SDS011;2960;49.142;7.768;2023-02-13T05:07:33;10.50;;;3.13;;
5867;SDS011;2960;49.142;7.768;2023-02-13T05:10:00;15.43;;;4.07;;
5867;SDS011;2960;49.142;7.768;2023-02-13T05:12:28;12.17;;;4.10;;
5867;SDS011;2960;49.142;7.768;2023-02-13T05:14:55;12.03;;;4.10;;
5867;SDS011;2960;49.142;7.768;2023-02-13T05:17:23;13.10;;;3.80;;
5867;SDS011;2960;49.142;7.768;2023-02-13T05:19:50;13.00;;;3.63;;
5867;SDS011;2960;49.142;7.768;2023-02-13T05:22:17;12.97;;;3.70;;
5867;SDS011;2960;49.142;7.768;2023-02-13T05:25:02;12.50;;;4.03;;
5867;SDS011;2960;49.142;7.768;2023-02-13T05:27:32;11.67;;;4.20;;
5867;SDS011;2960;49.142;7.768;2023-02-13T05:29:59;13.30;;;3.90;;
5867;SDS011;2960;49.142;7.768;2023-02-13T05:32:26;13.80;;;4.63;;
5867;SDS011;2960;49.142;7.768;2023-02-13T05:34:53;10.57;;;3.60;;
5867;SDS011;2960;49.142;7.768;2023-02-13T05:37:21;11.97;;;3.93;;
5867;SDS011;2960;49.142;7.768;2023-02-13T05:39:48;14.53;;;4.57;;
5867;SDS011;2960;49.142;7.768;2023-02-13T05:42:15;17.00;;;4.13;;
5867;SDS011;2960;49.142;7.768;2023-02-13T05:44:42;14.27;;;4.10;;
5867;SDS011;2960;49.142;7.768;2023-02-13T05:47:09;11.93;;;4.23;;
5867;SDS011;2960;49.142;7.768;2023-02-13T05:49:37;16.43;;;4.10;;
5867;SDS011;2960;49.142;7.768;2023-02-13T05:52:04;10.33;;;3.20;;
5867;SDS011;2960;49.142;7.768;2023-02-13T05:54:31;12.97;;;4.00;;
5867;SDS011;2960;49.142;7.768;2023-02-13T05:56:59;12.57;;;3.93;;
5867;SDS011;2960;49.142;7.768;2023-02-13T05:59:26;12.20;;;4.00;;
5867;SDS011;2960;49.142;7.768;2023-02-13T06:01:53;11.47;;;3.57;;
5867;SDS011;2960;49.142;7.768;2023-02-13T06:04:20;16.03;;;4.33;;
5867;SDS011;2960;49.142;7.768;2023-02-13T06:06:48;12.23;;;3.57;;
5867;SDS011;2960;49.142;7.768;2023-02-13T06:09:16;12.57;;;3.70;;
5867;SDS011;2960;49.142;7.768;2023-02-13T06:11:43;12.17;;;4.07;;
5867;SDS011;2960;49.142;7.768;2023-02-13T06:14:10;12.60;;;3.97;;
5867;SDS011;2960;49.142;7.768;2023-02-13T06:16:38;11.67;;;3.30;;
5867;SDS011;2960;49.142;7.768;2023-02-13T06:19:05;11.93;;;4.00;;
5867;SDS011;2960;49.142;7.768;2023-02-13T06:21:33;14.20;;;3.97;;
5867;SDS011;2960;49.142;7.768;2023-02-13T06:24:03;12.67;;;3.60;;
5867;SDS011;2960;49.142;7.768;2023-02-13T06:26:34;11.20;;;3.50;;
5867;SDS011;2960;49.142;7.768;2023-02-13T06:29:01;11.50;;;3.93;;
5867;SDS011;2960;49.142;7.768;2023-02-13T06:31:28;12.40;;;3.40;;
5867;SDS011;2960;49.142;7.768;2023-02-13T06:33:55;10.60;;;2.77;;
5867;SDS011;2960;49.142;7.768;2023-02-13T06:36:22;9.77;;;3.20;;
5867;SDS011;2960;49.142;7.768;2023-02-13T06:38:51;10.00;;;3.33;;
5867;SDS011;2960;49.142;7.768;2023-02-13T06:41:22;9.90;;;3.10;;
5867;SDS011;2960;49.142;7.768;2023-02-13T06:43:49;10.17;;;2.90;;
5867;SDS011;2960;49.142;7.768;2023-02-13T06:46:16;10.20;;;3.40;;
5867;SDS011;2960;49.142;7.768;2023-02-13T06:48:44;12.80;;;3.57;;
5867;SDS011;2960;49.142;7.768;2023-02-13T06:51:11;11.47;;;3.80;;
5867;SDS011;2960;49.142;7.768;2023-02-13T06:53:39;13.27;;;3.63;;
5867;SDS011;2960;49.142;7.768;2023-02-13T06:56:06;11.17;;;3.83;;
5867;SDS011;2960;49.142;7.768;2023-02-13T06:58:36;13.00;;;4.00;;
5867;SDS011;2960;49.142;7.768;2023-02-13T07:01:04;11.80;;;3.77;;
5867;SDS011;2960;49.142;7.768;2023-02-13T07:03:31;9.87;;;3.50;;
5867;SDS011;2960;49.142;7.768;2023-02-13T07:05:58;10.67;;;3.40;;
5867;SDS011;2960;49.142;7.768;2023-02-13T07:08:25;13.80;;;4.40;;
5867;SDS011;2960;49.142;7.768;2023-02-13T07:10:52;11.93;;;4.03;;
5867;SDS011;2960;49.142;7.768;2023-02-13T07:13:19;14.00;;;4.10;;
5867;SDS011;2960;49.142;7.768;2023-02-13T07:15:48;11.73;;;3.83;;
5867;SDS011;2960;49.142;7.768;2023-02-13T07:18:15;11.23;;;4.03;;
5867;SDS011;2960;49.142;7.768;2023-02-13T07:20:42;11.10;;;3.90;;
5867;SDS011;2960;49.142;7.768;2023-02-13T07:23:09;12.73;;;4.10;;
5867;SDS011;2960;49.142;7.768;2023-02-13T07:25:36;14.50;;;4.80;;
5867;SDS011;2960;49.142;7.768;2023-02-13T07:28:03;12.40;;;4.40;;
5867;SDS011;2960;49.142;7.768;2023-02-13T07:30:32;12.43;;;4.73;;
5867;SDS011;2960;49.142;7.768;2023-02-13T07:33:03;11.87;;;4.33;;
5867;SDS011;2960;49.142;7.768;2023-02-13T07:35:30;11.37;;;3.80;;
5867;SDS011;2960;49.142;7.768;2023-02-13T07:37:59;12.70;;;4.10;;
5867;SDS011;2960;49.142;7.768;2023-02-13T07:40:27;10.87;;;3.90;;
5867;SDS011;2960;49.142;7.768;2023-02-13T07:42:54;12.17;;;4.10;;
5867;SDS011;2960;49.142;7.768;2023-02-13T07:45:21;12.20;;;4.27;;
5867;SDS011;2960;49.142;7.768;2023-02-13T07:47:48;11.70;;;3.93;;
5867;SDS011;2960;49.142;7.768;2023-02-13T07:50:17;12.20;;;4.50;;
5867;SDS011;2960;49.142;7.768;2023-02-13T07:52:51;13.20;;;4.17;;
5867;SDS011;2960;49.142;7.768;2023-02-13T07:55:22;12.33;;;4.20;;
5867;SDS011;2960;49.142;7.768;2023-02-13T07:57:49;11.60;;;4.07;;
5867;SDS011;2960;49.142;7.768;2023-02-13T08:00:17;13.73;;;4.80;;
5867;SDS011;2960;49.142;7.768;2023-02-13T08:02:46;12.60;;;4.20;;
5867;SDS011;2960;49.142;7.768;2023-02-13T08:05:16;12.00;;;4.70;;
5867;SDS011;2960;49.142;7.768;2023-02-13T08:07:44;11.07;;;4.17;;
5867;SDS011;2960;49.142;7.768;2023-02-13T08:10:12;11.17;;;3.97;;
5867;SDS011;2960;49.142;7.768;2023-02-13T08:12:57;12.27;;;4.20;;
5867;SDS011;2960;49.142;7.768;2023-02-13T08:15:25;11.77;;;4.10;;
5867;SDS011;2960;49.142;7.768;2023-02-13T08:17:54;10.40;;;3.77;;
5867;SDS011;2960;49.142;7.768;2023-02-13T08:20:25;11.30;;;4.20;;
5867;SDS011;2960;49.142;7.768;2023-02-13T08:22:53;11.17;;;3.63;;
5867;SDS011;2960;49.142;7.768;2023-02-13T08:25:20;12.60;;;4.10;;
5867;SDS011;2960;49.142;7.768;2023-02-13T08:27:47;12.03;;;4.20;;
5867;SDS011;2960;49.142;7.768;2023-02-13T08:30:14;13.87;;;4.60;;
5867;SDS011;2960;49.142;7.768;2023-02-13T08:32:41;11.13;;;4.50;;
5867;SDS011;2960;49.142;7.768;2023-02-13T08:35:08;11.50;;;3.93;;
5867;SDS011;2960;49.142;7.768;2023-02-13T08:37:37;10.97;;;3.73;;
5867;SDS011;2960;49.142;7.768;2023-02-13T08:40:04;12.20;;;4.40;;
5867;SDS011;2960;49.142;7.768;2023-02-13T08:42:34;11.60;;;4.10;;
5867;SDS011;2960;49.142;7.768;2023-02-13T08:45:02;11.57;;;4.40;;
5867;SDS011;2960;49.142;7.768;2023-02-13T08:47:29;11.60;;;4.60;;
5867;SDS011;2960;49.142;7.768;2023-02-13T08:49:57;10.87;;;4.20;;
5867;SDS011;2960;49.142;7.768;2023-02-13T08:52:24;10.20;;;4.30;;
5867;SDS011;2960;49.142;7.768;2023-02-13T08:54:52;13.33;;;4.90;;
5867;SDS011;2960;49.142;7.768;2023-02-13T08:57:20;10.80;;;4.53;;
5867;SDS011;2960;49.142;7.768;2023-02-13T08:59:49;12.33;;;4.73;;
5867;SDS011;2960;49.142;7.768;2023-02-13T09:02:17;11.70;;;5.23;;
5867;SDS011;2960;49.142;7.768;2023-02-13T09:04:44;11.93;;;5.10;;
5867;SDS011;2960;49.142;7.768;2023-02-13T09:07:11;13.93;;;5.40;;
5867;SDS011;2960;49.142;7.768;2023-02-13T09:09:38;13.20;;;5.27;;
5867;SDS011;2960;49.142;7.768;2023-02-13T09:12:07;12.93;;;5.07;;
5867;SDS011;2960;49.142;7.768;2023-02-13T09:14:34;12.20;;;4.90;;
5867;SDS011;2960;49.142;7.768;2023-02-13T09:17:03;11.03;;;4.87;;
5867;SDS011;2960;49.142;7.768;2023-02-13T09:19:30;12.33;;;5.03;;
5867;SDS011;2960;49.142;7.768;2023-02-13T09:21:57;13.40;;;5.63;;
5867;SDS011;2960;49.142;7.768;2023-02-13T09:24:24;13.17;;;5.53;;
5867;SDS011;2960;49.142;7.768;2023-02-13T09:26:52;14.63;;;5.70;;
5867;SDS011;2960;49.142;7.768;2023-02-13T09:29:22;12.93;;;5.37;;
5867;SDS011;2960;49.142;7.768;2023-02-13T09:31:49;11.93;;;5.30;;
5867;SDS011;2960;49.142;7.768;2023-02-13T09:34:16;14.93;;;5.73;;
5867;SDS011;2960;49.142;7.768;2023-02-13T09:36:43;14.93;;;6.00;;
5867;SDS011;2960;49.142;7.768;2023-02-13T09:39:10;12.13;;;5.67;;
5867;SDS011;2960;49.142;7.768;2023-02-13T09:41:38;12.70;;;5.40;;
5867;SDS011;2960;49.142;7.768;2023-02-13T09:44:10;18.30;;;5.97;;
5867;SDS011;2960;49.142;7.768;2023-02-13T09:46:59;12.10;;;5.17;;
5867;SDS011;2960;49.142;7.768;2023-02-13T09:49:31;13.60;;;5.93;;
5867;SDS011;2960;49.142;7.768;2023-02-13T09:52:04;13.43;;;5.70;;
5867;SDS011;2960;49.142;7.768;2023-02-13T09:54:31;14.00;;;5.80;;
5867;SDS011;2960;49.142;7.768;2023-02-13T09:57:00;14.10;;;6.40;;
5867;SDS011;2960;49.142;7.768;2023-02-13T09:59:38;14.80;;;6.50;;
5867;SDS011;2960;49.142;7.768;2023-02-13T10:02:22;14.97;;;6.67;;
5867;SDS011;2960;49.142;7.768;2023-02-13T10:05:08;13.20;;;6.10;;
5867;SDS011;2960;49.142;7.768;2023-02-13T10:07:48;14.60;;;6.17;;
5867;SDS011;2960;49.142;7.768;2023-02-13T10:10:26;13.90;;;6.13;;
5867;SDS011;2960;49.142;7.768;2023-02-13T10:13:07;14.40;;;6.27;;
5867;SDS011;2960;49.142;7.768;2023-02-13T10:15:51;15.20;;;6.63;;
5867;SDS011;2960;49.142;7.768;2023-02-13T10:18:32;14.20;;;6.10;;
5867;SDS011;2960;49.142;7.768;2023-02-13T10:21:08;14.17;;;6.63;;
5867;SDS011;2960;49.142;7.768;2023-02-13T10:23:37;13.33;;;5.70;;
5867;SDS011;2960;49.142;7.768;2023-02-13T10:26:11;14.07;;;6.43;;
5867;SDS011;2960;49.142;7.768;2023-02-13T10:28:45;13.23;;;5.90;;
5867;SDS011;2960;49.142;7.768;2023-02-13T10:31:33;14.33;;;6.87;;
5867;SDS011;2960;49.142;7.768;2023-02-13T10:34:03;13.20;;;6.37;;
5867;SDS011;2960;49.142;7.768;2023-02-13T10:36:39;14.70;;;6.70;;
5867;SDS011;2960;49.142;7.768;2023-02-13T10:39:17;14.70;;;6.70;;
5867;SDS011;2960;49.142;7.768;2023-02-13T10:41:51;12.57;;;6.20;;
5867;SDS011;2960;49.142;7.768;2023-02-13T10:44:37;14.40;;;6.80;;
5867;SDS011;2960;49.142;7.768;2023-02-13T10:47:24;14.40;;;6.57;;
5867;SDS011;2960;49.142;7.768;2023-02-13T10:50:18;13.13;;;6.30;;
5867;SDS011;2960;49.142;7.768;2023-02-13T10:52:55;14.17;;;6.60;;
5867;SDS011;2960;49.142;7.768;2023-02-13T10:55:40;13.87;;;6.77;;
5867;SDS011;2960;49.142;7.768;2023-02-13T10:58:50;13.57;;;5.90;;
5867;SDS011;2960;49.142;7.768;2023-02-13T11:01:31;12.80;;;6.00;;
5867;SDS011;2960;49.142;7.768;2023-02-13T11:04:05;13.60;;;6.50;;
5867;SDS011;2960;49.142;7.768;2023-02-13T11:06:39;12.90;;;6.23;;
5867;SDS011;2960;49.142;7.768;2023-02-13T11:09:12;13.37;;;6.67;;
5867;SDS011;2960;49.142;7.768;2023-02-13T11:11:39;13.50;;;6.57;;
5867;SDS011;2960;49.142;7.768;2023-02-13T11:14:09;12.77;;;6.47;;
5867;SDS011;2960;49.142;7.768;2023-02-13T11:16:52;13.20;;;6.70;;
5867;SDS011;2960;49.142;7.768;2023-02-13T11:19:24;12.00;;;5.47;;
5867;SDS011;2960;49.142;7.768;2023-02-13T11:21:58;12.03;;;6.00;;
5867;SDS011;2960;49.142;7.768;2023-02-13T11:24:29;12.20;;;6.00;;
5867;SDS011;2960;49.142;7.768;2023-02-13T11:26:58;13.53;;;6.00;;
5867;SDS011;2960;49.142;7.768;2023-02-13T11:29:30;12.13;;;5.97;;
5867;SDS011;2960;49.142;7.768;2023-02-13T11:32:00;11.73;;;5.57;;
5867;SDS011;2960;49.142;7.768;2023-02-13T11:34:44;11.97;;;5.50;;
5867;SDS011;2960;49.142;7.768;2023-02-13T11:37:20;12.30;;;6.00;;
5867;SDS011;2960;49.142;7.768;2023-02-13T11:39:51;11.80;;;5.60;;
5867;SDS011;2960;49.142;7.768;2023-02-13T11:42:23;12.27;;;5.80;;
5867;SDS011;2960;49.142;7.768;2023-02-13T11:44:56;11.60;;;5.50;;
5867;SDS011;2960;49.142;7.768;2023-02-13T11:47:30;12.57;;;5.90;;
5867;SDS011;2960;49.142;7.768;2023-02-13T11:50:04;11.90;;;5.67;;
5867;SDS011;2960;49.142;7.768;2023-02-13T11:52:52;11.83;;;5.53;;
5867;SDS011;2960;49.142;7.768;2023-02-13T11:55:29;12.50;;;5.83;;
5867;SDS011;2960;49.142;7.768;2023-02-13T11:57:59;12.43;;;5.70;;
5867;SDS011;2960;49.142;7.768;2023-02-13T12:00:31;12.00;;;5.30;;
5867;SDS011;2960;49.142;7.768;2023-02-13T12:03:23;11.50;;;5.40;;
5867;SDS011;2960;49.142;7.768;2023-02-13T12:05:59;10.90;;;4.97;;
5867;SDS011;2960;49.142;7.768;2023-02-13T12:08:32;11.40;;;5.33;;
5867;SDS011;2960;49.142;7.768;2023-02-13T12:11:02;11.00;;;4.90;;
5867;SDS011;2960;49.142;7.768;2023-02-13T12:13:41;12.00;;;5.83;;
5867;SDS011;2960;49.142;7.768;2023-02-13T12:16:09;11.73;;;5.27;;
5867;SDS011;2960;49.142;7.768;2023-02-13T12:18:47;11.53;;;5.23;;
5867;SDS011;2960;49.142;7.768;2023-02-13T12:21:23;11.50;;;5.50;;
5867;SDS011;2960;49.142;7.768;2023-02-13T12:24:10;11.70;;;5.40;;
5867;SDS011;2960;49.142;7.768;2023-02-13T12:26:51;11.40;;;5.20;;
5867;SDS011;2960;49.142;7.768;2023-02-13T12:29:40;12.10;;;5.23;;
5867;SDS011;2960;49.142;7.768;2023-02-13T12:32:25;12.40;;;6.00;;
5867;SDS011;2960;49.142;7.768;2023-02-13T12:38:06;12.20;;;5.60;;
5867;SDS011;2960;49.142;7.768;2023-02-13T12:41:00;12.00;;;5.77;;
5867;SDS011;2960;49.142;7.768;2023-02-13T12:47:13;12.80;;;5.60;;
5867;SDS011;2960;49.142;7.768;2023-02-13T12:52:55;13.50;;;6.23;;
5867;SDS011;2960;49.142;7.768;2023-02-13T12:55:42;12.97;;;6.00;;
5867;SDS011;2960;49.142;7.768;2023-02-13T13:01:24;12.30;;;5.77;;
5867;SDS011;2960;49.142;7.768;2023-02-13T13:04:11;14.13;;;6.23;;
5867;SDS011;2960;49.142;7.768;2023-02-13T13:06:49;15.30;;;6.90;;
5867;SDS011;2960;49.142;7.768;2023-02-13T13:09:39;14.30;;;6.13;;
5867;SDS011;2960;49.142;7.768;2023-02-13T13:12:26;13.80;;;6.53;;
5867;SDS011;2960;49.142;7.768;2023-02-13T13:15:10;13.53;;;6.53;;
5867;SDS011;2960;49.142;7.768;2023-02-13T13:17:51;12.50;;;6.00;;
5867;SDS011;2960;49.142;7.768;2023-02-13T13:20:35;13.90;;;6.63;;
5867;SDS011;2960;49.142;7.768;2023-02-13T13:23:21;14.37;;;6.80;;
5867;SDS011;2960;49.142;7.768;2023-02-13T13:25:58;13.50;;;6.47;;
5867;SDS011;2960;49.142;7.768;2023-02-13T13:28:41;13.50;;;6.60;;
5867;SDS011;2960;49.142;7.768;2023-02-13T13:31:13;13.30;;;6.33;;
5867;SDS011;2960;49.142;7.768;2023-02-13T13:33:42;13.53;;;6.00;;
5867;SDS011;2960;49.142;7.768;2023-02-13T13:36:13;12.10;;;5.63;;
5867;SDS011;2960;49.142;7.768;2023-02-13T13:38:51;13.40;;;6.10;;
5867;SDS011;2960;49.142;7.768;2023-02-13T13:41:29;13.40;;;6.00;;
5867;SDS011;2960;49.142;7.768;2023-02-13T13:44:05;12.60;;;6.10;;
5867;SDS011;2960;49.142;7.768;2023-02-13T13:46:55;14.13;;;5.83;;
5867;SDS011;2960;49.142;7.768;2023-02-13T13:49:33;12.90;;;6.10;;
5867;SDS011;2960;49.142;7.768;2023-02-13T13:52:17;13.40;;;6.27;;
5867;SDS011;2960;49.142;7.768;2023-02-13T13:54:49;12.30;;;5.60;;
5867;SDS011;2960;49.142;7.768;2023-02-13T13:57:20;14.53;;;5.93;;
5867;SDS011;2960;49.142;7.768;2023-02-13T14:05:57;13.87;;;5.93;;
5867;SDS011;2960;49.142;7.768;2023-02-13T14:11:56;12.67;;;6.00;;
5867;SDS011;2960;49.142;7.768;2023-02-13T14:20:22;12.17;;;5.87;;
5867;SDS011;2960;49.142;7.768;2023-02-13T14:23:07;12.87;;;5.77;;
5867;SDS011;2960;49.142;7.768;2023-02-13T14:25:44;12.73;;;5.60;;
5867;SDS011;2960;49.142;7.768;2023-02-13T14:28:18;12.07;;;5.30;;
5867;SDS011;2960;49.142;7.768;2023-02-13T14:30:49;12.70;;;5.70;;
5867;SDS011;2960;49.142;7.768;2023-02-13T14:33:20;13.20;;;5.67;;
5867;SDS011;2960;49.142;7.768;2023-02-13T14:36:03;12.93;;;5.70;;
5867;SDS011;2960;49.142;7.768;2023-02-13T14:38:34;14.70;;;6.30;;
5867;SDS011;2960;49.142;7.768;2023-02-13T14:41:01;13.17;;;5.90;;
5867;SDS011;2960;49.142;7.768;2023-02-13T14:43:35;12.87;;;6.00;;
5867;SDS011;2960;49.142;7.768;2023-02-13T14:46:17;13.33;;;6.30;;
5867;SDS011;2960;49.142;7.768;2023-02-13T14:49:00;13.30;;;6.10;;
5867;SDS011;2960;49.142;7.768;2023-02-13T14:51:34;13.10;;;5.97;;
5867;SDS011;2960;49.142;7.768;2023-02-13T14:54:07;13.70;;;5.90;;
5867;SDS011;2960;49.142;7.768;2023-02-13T14:56:45;12.20;;;5.70;;
5867;SDS011;2960;49.142;7.768;2023-02-13T14:59:15;12.33;;;5.27;;
5867;SDS011;2960;49.142;7.768;2023-02-13T15:01:46;14.60;;;5.77;;
5867;SDS011;2960;49.142;7.768;2023-02-13T15:04:19;12.20;;;5.73;;
5867;SDS011;2960;49.142;7.768;2023-02-13T15:06:52;12.97;;;5.80;;
5867;SDS011;2960;49.142;7.768;2023-02-13T15:09:25;14.63;;;6.10;;
5867;SDS011;2960;49.142;7.768;2023-02-13T15:11:57;12.70;;;5.37;;
5867;SDS011;2960;49.142;7.768;2023-02-13T15:14:29;12.40;;;5.40;;
5867;SDS011;2960;49.142;7.768;2023-02-13T15:17:01;13.00;;;5.47;;
5867;SDS011;2960;49.142;7.768;2023-02-13T15:19:33;12.60;;;5.30;;
5867;SDS011;2960;49.142;7.768;2023-02-13T15:22:04;12.40;;;5.30;;
5867;SDS011;2960;49.142;7.768;2023-02-13T15:24:35;13.70;;;5.40;;
5867;SDS011;2960;49.142;7.768;2023-02-13T15:27:14;12.37;;;5.60;;
5867;SDS011;2960;49.142;7.768;2023-02-13T15:29:54;12.80;;;5.60;;
5867;SDS011;2960;49.142;7.768;2023-02-13T15:32:25;11.90;;;5.40;;
5867;SDS011;2960;49.142;7.768;2023-02-13T15:34:57;12.17;;;5.30;;
5867;SDS011;2960;49.142;7.768;2023-02-13T15:37:26;13.40;;;5.93;;
5867;SDS011;2960;49.142;7.768;2023-02-13T15:42:49;12.90;;;5.60;;
5867;SDS011;2960;49.142;7.768;2023-02-13T15:45:17;13.57;;;5.97;;
5867;SDS011;2960;49.142;7.768;2023-02-13T15:47:48;13.17;;;5.93;;
5867;SDS011;2960;49.142;7.768;2023-02-13T15:50:17;13.77;;;5.77;;
5867;SDS011;2960;49.142;7.768;2023-02-13T15:52:49;12.87;;;5.20;;
5867;SDS011;2960;49.142;7.768;2023-02-13T15:55:19;12.40;;;5.50;;
5867;SDS011;2960;49.142;7.768;2023-02-13T15:57:50;12.93;;;5.20;;
5867;SDS011;2960;49.142;7.768;2023-02-13T16:00:23;13.43;;;5.23;;
5867;SDS011;2960;49.142;7.768;2023-02-13T16:02:53;12.80;;;5.30;;
5867;SDS011;2960;49.142;7.768;2023-02-13T16:05:23;11.90;;;5.07;;
5867;SDS011;2960;49.142;7.768;2023-02-13T16:07:54;13.70;;;5.17;;
5867;SDS011;2960;49.142;7.768;2023-02-13T16:10:26;11.53;;;4.87;;
5867;SDS011;2960;49.142;7.768;2023-02-13T16:12:55;11.60;;;4.97;;
5867;SDS011;2960;49.142;7.768;2023-02-13T16:15:25;11.90;;;5.47;;
5867;SDS011;2960;49.142;7.768;2023-02-13T16:17:55;11.43;;;4.67;;
5867;SDS011;2960;49.142;7.768;2023-02-13T16:20:24;11.43;;;4.93;;